Terminal Aerodrome Forecast
Issued by NWS Charleston, WV

Current Version | Previous Version | Text Only | Print | Product List | Glossary Off
Versions: 1 2 3 4 5 6 7 8 9 10 11 12 13 14 15 16 17 18 19 20 21 22 23

000
FTUS41 KRLX 252300
TAFHTS
TAF
KHTS 252335Z 2600/2624 03003KT P6SM SKC
     FM261000 02004KT 5SM -SN BR OVC025
     FM261300 34005KT P6SM BKN015=

USA.gov is the U.S. government's official web portal to all federal, state and local government web resources and services.